Time;durP1;ratioP1;P1;durP2;ratioP2;P2;SDS_P1;SDS_P2;PMS_P1;PMS_P2;Temp;Humidity;BMP_temperature;BMP_pressure;BME280_temperature;BME280_humidity;BME280_pressure;Samples;Min_cycle;Max_cycle;Signal;HPM_P1;HPM_P2
2021/10/23 00:01:32;;;;;;;3.60;1.70;;;6.50;1.00;;;;;;5114934;27;20234;-76
2021/10/23 00:03:59;;;;;;;7.78;2.25;;;6.50;1.00;;;;;;5115730;27;20227;-76
2021/10/23 00:06:25;;;;;;;5.35;2.22;;;6.50;1.00;;;;;;5115399;27;20230;-76
2021/10/23 00:08:52;;;;;;;6.30;2.05;;;6.50;1.00;;;;;;5117472;27;20239;-76
2021/10/23 00:11:19;;;;;;;7.05;1.88;;;6.50;1.00;;;;;;5111635;27;20235;-77
2021/10/23 00:13:46;;;;;;;6.03;1.60;;;6.50;1.00;;;;;;5112871;27;20229;-76
2021/10/23 00:16:14;;;;;;;7.45;2.10;;;6.50;1.00;;;;;;5119233;27;20722;-77
2021/10/23 00:18:40;;;;;;;6.90;1.73;;;6.50;1.00;;;;;;5115738;27;20224;-76
2021/10/23 00:21:07;;;;;;;6.65;1.88;;;6.40;1.00;;;;;;5119382;27;20235;-76
2021/10/23 00:23:34;;;;;;;6.50;2.22;;;6.50;1.00;;;;;;5113612;27;20227;-76
2021/10/23 00:26:00;;;;;;;6.35;1.85;;;6.40;1.00;;;;;;5124692;27;20339;-76
2021/10/23 00:28:27;;;;;;;6.85;2.35;;;6.40;1.00;;;;;;5121548;27;20220;-76
2021/10/23 00:30:54;;;;;;;5.55;2.28;;;6.40;1.00;;;;;;5114028;27;20746;-76
2021/10/23 00:33:22;;;;;;;5.50;1.77;;;6.50;1.00;;;;;;5091533;27;20215;-76
2021/10/23 00:35:48;;;;;;;6.28;2.88;;;6.40;1.00;;;;;;5119564;27;20989;-76
2021/10/23 00:38:15;;;;;;;4.80;1.98;;;6.40;1.00;;;;;;5104062;27;20229;-76
2021/10/23 00:40:42;;;;;;;6.43;2.10;;;6.50;1.00;;;;;;5116552;27;20218;-77
2021/10/23 00:43:09;;;;;;;5.38;2.90;;;6.40;1.00;;;;;;5112657;27;20222;-77
2021/10/23 00:45:36;;;;;;;4.93;2.08;;;6.40;1.00;;;;;;5094192;27;20220;-77
2021/10/23 00:48:02;;;;;;;8.63;2.00;;;6.40;1.00;;;;;;5098651;27;20238;-77
2021/10/23 00:50:30;;;;;;;5.57;2.50;;;6.40;1.00;;;;;;5115695;27;20670;-77
2021/10/23 00:52:58;;;;;;;8.23;2.40;;;6.40;1.00;;;;;;5111208;27;21373;-77
2021/10/23 00:55:24;;;;;;;5.10;1.83;;;6.40;1.00;;;;;;5117939;27;20220;-77
2021/10/23 00:57:51;;;;;;;5.60;2.03;;;6.40;1.00;;;;;;5113409;27;20224;-77
2021/10/23 01:00:18;;;;;;;6.30;1.90;;;6.40;1.00;;;;;;5120446;27;20309;-77
2021/10/23 01:02:44;;;;;;;9.43;2.65;;;6.40;1.00;;;;;;5113357;27;20219;-77
2021/10/23 01:05:11;;;;;;;8.50;3.38;;;6.30;1.00;;;;;;5117690;27;20518;-78
2021/10/23 01:07:39;;;;;;;7.85;2.15;;;6.40;1.00;;;;;;5111829;27;20238;-75
2021/10/23 01:10:09;;;;;;;8.65;2.60;;;6.40;1.00;;;;;;5116257;27;20287;-76
2021/10/23 01:12:40;;;;;;;8.32;1.88;;;6.40;1.00;;;;;;5111703;27;20626;-76
2021/10/23 01:15:22;;;;;;;5.75;2.10;;;6.40;1.00;;;;;;5113798;27;20689;-75
2021/10/23 01:17:49;;;;;;;7.15;1.80;;;6.30;1.00;;;;;;5111510;27;20223;-76
2021/10/23 01:20:17;;;;;;;7.10;2.38;;;6.30;1.00;;;;;;5115893;27;20226;-76
2021/10/23 01:22:44;;;;;;;5.75;2.05;;;6.30;1.00;;;;;;5110693;27;20230;-76
2021/10/23 01:25:11;;;;;;;6.20;2.55;;;6.30;1.00;;;;;;5122825;27;20286;-76
2021/10/23 01:27:38;;;;;;;8.05;2.50;;;6.30;1.00;;;;;;5133273;27;20273;-76
2021/10/23 01:30:06;;;;;;;9.18;3.00;;;6.30;1.00;;;;;;5112536;27;20223;-76
2021/10/23 01:32:33;;;;;;;5.75;2.38;;;6.30;1.00;;;;;;5114385;27;20978;-76
2021/10/23 01:35:00;;;;;;;3.50;1.85;;;6.30;1.00;;;;;;5119264;27;20219;-76
2021/10/23 01:37:40;;;;;;;10.25;2.50;;;6.30;1.00;;;;;;5098481;27;20233;-76
2021/10/23 01:40:09;;;;;;;6.15;2.13;;;6.30;1.00;;;;;;5112822;27;20223;-76
2021/10/23 01:42:36;;;;;;;7.60;1.98;;;6.30;1.00;;;;;;5095864;27;20828;-76
2021/10/23 01:45:03;;;;;;;11.70;3.08;;;6.30;1.00;;;;;;5111669;27;20226;-76
2021/10/23 01:47:30;;;;;;;6.13;2.10;;;6.30;1.00;;;;;;5119177;27;20223;-76
2021/10/23 01:49:56;;;;;;;4.97;1.90;;;6.30;1.00;;;;;;5112660;27;21035;-76
2021/10/23 01:52:23;;;;;;;4.80;1.80;;;6.30;1.00;;;;;;5111700;27;20222;-77
2021/10/23 01:54:51;;;;;;;8.05;2.75;;;6.20;1.00;;;;;;5117653;27;20265;-77
2021/10/23 01:57:18;;;;;;;4.85;2.00;;;6.20;1.00;;;;;;5115294;27;20222;-77
2021/10/23 01:59:45;;;;;;;6.90;2.88;;;6.20;1.00;;;;;;5117416;27;20651;-77
2021/10/23 02:02:11;;;;;;;6.00;2.90;;;6.20;1.00;;;;;;5129867;27;20230;-76
2021/10/23 02:04:38;;;;;;;4.85;1.70;;;6.20;1.00;;;;;;5128967;27;21099;-76
2021/10/23 02:07:05;;;;;;;11.13;2.53;;;6.20;1.00;;;;;;5132320;27;20242;-76
2021/10/23 02:09:31;;;;;;;5.38;2.10;;;6.30;1.00;;;;;;5130455;27;20235;-77
2021/10/23 02:11:59;;;;;;;11.43;2.25;;;6.30;1.00;;;;;;5115004;27;20222;-77
2021/10/23 02:14:26;;;;;;;10.75;2.20;;;6.20;1.00;;;;;;5113537;27;20254;-77
2021/10/23 02:16:53;;;;;;;11.05;2.33;;;6.30;1.00;;;;;;5113508;27;20223;-77
2021/10/23 02:19:19;;;;;;;6.97;2.60;;;6.30;1.00;;;;;;5108148;27;20285;-77
2021/10/23 02:21:46;;;;;;;8.93;2.50;;;6.30;1.00;;;;;;5121377;27;20287;-76
2021/10/23 02:24:12;;;;;;;6.10;2.20;;;6.30;1.00;;;;;;5122086;27;20230;-77
2021/10/23 02:26:40;;;;;;;4.70;2.22;;;6.30;1.00;;;;;;5116985;27;20215;-77
2021/10/23 02:29:08;;;;;;;9.02;2.20;;;6.30;1.00;;;;;;5116560;27;20249;-77
2021/10/23 02:31:34;;;;;;;9.95;2.40;;;6.30;1.00;;;;;;5118795;27;20606;-76
2021/10/23 02:34:01;;;;;;;6.63;2.25;;;6.20;1.00;;;;;;5117065;27;20211;-77
2021/10/23 02:36:28;;;;;;;7.45;2.42;;;6.20;1.00;;;;;;5117512;27;20231;-77
2021/10/23 02:38:54;;;;;;;6.50;1.88;;;6.20;1.00;;;;;;5111809;27;21557;-77
2021/10/23 02:41:24;;;;;;;10.85;2.05;;;6.20;1.00;;;;;;5114978;27;20218;-76
2021/10/23 02:43:51;;;;;;;6.70;1.80;;;6.20;1.00;;;;;;5117978;27;20742;-76
2021/10/23 02:46:19;;;;;;;9.75;2.65;;;6.20;1.00;;;;;;5111893;27;20222;-76
2021/10/23 02:48:45;;;;;;;8.25;2.15;;;6.20;1.00;;;;;;5116472;27;20225;-76
2021/10/23 02:51:12;;;;;;;7.38;2.13;;;6.20;1.00;;;;;;5110396;27;20871;-76
2021/10/23 02:53:39;;;;;;;6.32;2.15;;;6.20;1.00;;;;;;5119456;27;20992;-76
2021/10/23 02:56:05;;;;;;;6.90;2.10;;;6.30;1.00;;;;;;5114804;27;20236;-76
2021/10/23 02:58:32;;;;;;;6.45;2.47;;;6.20;1.00;;;;;;5113292;27;21409;-76
2021/10/23 03:00:59;;;;;;;6.93;2.10;;;6.20;1.00;;;;;;5119729;27;20215;-76
2021/10/23 03:03:27;;;;;;;5.78;2.15;;;6.20;1.00;;;;;;5113121;27;20303;-76
2021/10/23 03:05:53;;;;;;;6.85;2.00;;;6.20;1.00;;;;;;5098073;27;20310;-76
2021/10/23 03:08:20;;;;;;;8.05;2.50;;;6.20;1.00;;;;;;5096180;27;20331;-75
2021/10/23 03:10:47;;;;;;;7.25;1.80;;;6.20;1.00;;;;;;5113101;27;20342;-77
2021/10/23 03:13:13;;;;;;;10.70;3.88;;;6.20;1.00;;;;;;5116245;27;20659;-76
2021/10/23 03:15:40;;;;;;;7.55;2.30;;;6.30;1.00;;;;;;5095933;27;20230;-76
2021/10/23 03:18:07;;;;;;;5.35;2.25;;;6.20;1.00;;;;;;5119137;27;20219;-76
2021/10/23 03:20:35;;;;;;;5.82;2.00;;;6.20;1.00;;;;;;5106421;27;20223;-76
2021/10/23 03:23:01;;;;;;;5.68;1.95;;;6.20;1.00;;;;;;5118432;27;20207;-76
2021/10/23 03:25:28;;;;;;;9.00;2.13;;;6.20;1.00;;;;;;5113947;27;20620;-76
2021/10/23 03:27:54;;;;;;;5.00;2.00;;;6.20;1.00;;;;;;5113038;27;20224;-75
2021/10/23 03:30:21;;;;;;;13.32;2.42;;;6.20;1.00;;;;;;5115648;27;21155;-76
2021/10/23 03:32:48;;;;;;;13.63;2.60;;;6.30;1.00;;;;;;5118755;27;20225;-75
2021/10/23 03:35:14;;;;;;;7.55;2.80;;;6.30;1.00;;;;;;5117075;27;20959;-75
2021/10/23 03:37:42;;;;;;;7.30;1.90;;;6.30;1.00;;;;;;5119838;27;20226;-76
2021/10/23 03:40:10;;;;;;;9.15;2.40;;;6.30;1.00;;;;;;5116218;27;20216;-77
2021/10/23 03:42:37;;;;;;;7.47;2.40;;;6.30;1.00;;;;;;5118445;27;20228;-76
2021/10/23 03:45:04;;;;;;;6.55;2.20;;;6.30;1.00;;;;;;5115133;27;20231;-76
2021/10/23 03:47:31;;;;;;;3.63;1.90;;;6.30;1.00;;;;;;5114934;27;20223;-76
2021/10/23 03:49:58;;;;;;;7.53;2.00;;;6.30;1.00;;;;;;5115702;27;20239;-76
2021/10/23 03:52:24;;;;;;;5.60;2.60;;;6.30;1.00;;;;;;5113315;27;20215;-76
2021/10/23 03:54:52;;;;;;;4.57;1.55;;;6.30;1.00;;;;;;5115042;27;20359;-76
2021/10/23 03:57:20;;;;;;;7.00;2.03;;;6.30;1.00;;;;;;5114617;27;20215;-76
2021/10/23 03:59:47;;;;;;;7.50;2.00;;;6.30;1.00;;;;;;5115179;27;20222;-76
2021/10/23 04:02:13;;;;;;;6.43;1.63;;;6.30;1.00;;;;;;5116547;27;20219;-76
2021/10/23 04:04:40;;;;;;;9.32;2.20;;;6.30;1.00;;;;;;5125296;27;20215;-76
2021/10/23 04:07:06;;;;;;;10.20;3.95;;;6.30;1.00;;;;;;5120145;27;21177;-76
2021/10/23 04:09:33;;;;;;;6.68;2.45;;;6.40;1.00;;;;;;5116390;27;20238;-76
2021/10/23 04:12:01;;;;;;;6.38;2.03;;;6.40;1.00;;;;;;5095023;27;20242;-76
2021/10/23 04:14:28;;;;;;;4.75;1.98;;;6.40;1.00;;;;;;5118713;27;20219;-75
2021/10/23 04:16:54;;;;;;;7.78;2.53;;;6.40;1.00;;;;;;5114671;27;20226;-75
2021/10/23 04:19:21;;;;;;;8.05;3.20;;;6.40;1.00;;;;;;5109268;27;20955;-75
2021/10/23 04:21:48;;;;;;;7.32;2.50;;;6.50;1.00;;;;;;5113900;27;21651;-75
2021/10/23 04:24:14;;;;;;;9.55;2.38;;;6.50;1.00;;;;;;5114794;27;20223;-76
2021/10/23 04:26:42;;;;;;;8.80;2.67;;;6.50;1.00;;;;;;5115655;27;20298;-76
2021/10/23 04:29:10;;;;;;;6.88;2.53;;;6.60;1.00;;;;;;5097758;27;20228;-76
2021/10/23 04:31:36;;;;;;;5.38;2.03;;;6.60;1.00;;;;;;5116123;27;20227;-76
2021/10/23 04:34:03;;;;;;;6.50;2.50;;;6.50;1.00;;;;;;5117943;27;20219;-76
2021/10/23 04:36:30;;;;;;;7.05;2.40;;;6.50;1.00;;;;;;5117853;27;21084;-76
2021/10/23 04:38:56;;;;;;;5.68;2.42;;;6.50;1.00;;;;;;5113447;27;20717;-76
2021/10/23 04:41:23;;;;;;;6.13;1.58;;;6.40;1.00;;;;;;5114059;27;20832;-76
2021/10/23 04:43:50;;;;;;;6.60;2.00;;;6.40;1.00;;;;;;5112901;27;20227;-76
2021/10/23 04:46:17;;;;;;;7.55;2.33;;;6.40;1.00;;;;;;5111565;27;20230;-75
2021/10/23 04:48:44;;;;;;;11.60;2.67;;;6.30;1.00;;;;;;5115501;27;20673;-75
2021/10/23 04:51:11;;;;;;;11.30;2.88;;;6.30;1.00;;;;;;5113477;27;20760;-76
2021/10/23 04:53:38;;;;;;;9.23;3.55;;;6.30;1.00;;;;;;5115528;27;20225;-76
2021/10/23 04:56:05;;;;;;;6.60;2.10;;;6.30;1.00;;;;;;5115277;27;20215;-75
2021/10/23 04:58:32;;;;;;;8.57;1.73;;;6.20;1.00;;;;;;5116366;27;21030;-76
2021/10/23 05:00:59;;;;;;;8.88;2.55;;;6.20;1.00;;;;;;5125572;27;20215;-75
2021/10/23 05:03:27;;;;;;;6.70;2.25;;;6.20;1.00;;;;;;5112984;27;20215;-75
2021/10/23 05:05:53;;;;;;;5.93;2.15;;;6.20;1.00;;;;;;5117282;27;20235;-76
2021/10/23 05:08:20;;;;;;;4.70;1.80;;;6.10;1.00;;;;;;5115136;27;20223;-76
2021/10/23 05:10:47;;;;;;;6.88;2.53;;;6.10;1.00;;;;;;5111136;27;21053;-75
2021/10/23 05:13:14;;;;;;;7.57;2.30;;;6.10;1.00;;;;;;5112840;27;20246;-75
2021/10/23 05:15:41;;;;;;;7.95;2.00;;;6.10;1.00;;;;;;5118149;27;20297;-76
2021/10/23 05:18:08;;;;;;;4.47;1.90;;;6.10;1.00;;;;;;5118064;27;20263;-76
2021/10/23 05:20:36;;;;;;;6.63;2.72;;;6.10;1.00;;;;;;5115837;27;20215;-76
2021/10/23 05:23:03;;;;;;;8.30;2.88;;;6.10;1.00;;;;;;5115443;27;20242;-76
2021/10/23 05:25:29;;;;;;;7.97;2.42;;;6.10;1.00;;;;;;5114286;27;20215;-76
2021/10/23 05:27:56;;;;;;;6.22;2.38;;;6.10;1.00;;;;;;5115670;27;20957;-76
2021/10/23 05:30:23;;;;;;;8.48;2.47;;;6.00;1.00;;;;;;5120865;27;20233;-76
2021/10/23 05:32:49;;;;;;;7.10;2.65;;;6.00;1.00;;;;;;5137955;27;20232;-76
2021/10/23 05:35:16;;;;;;;11.63;3.45;;;6.00;1.00;;;;;;5117591;27;20219;-76
2021/10/23 05:37:45;;;;;;;6.47;2.13;;;6.00;1.00;;;;;;5114024;27;20253;-76
2021/10/23 05:40:12;;;;;;;8.15;2.20;;;6.00;1.00;;;;;;5115212;27;20238;-76
2021/10/23 05:42:39;;;;;;;7.90;2.88;;;6.00;1.00;;;;;;5115025;27;20447;-76
2021/10/23 05:45:07;;;;;;;9.55;2.80;;;6.00;1.00;;;;;;5115448;27;20970;-76
2021/10/23 05:47:34;;;;;;;6.75;3.38;;;6.00;1.00;;;;;;5111413;27;20231;-76
2021/10/23 05:50:01;;;;;;;5.78;2.50;;;6.00;1.00;;;;;;5114958;27;20223;-76
2021/10/23 05:52:27;;;;;;;6.32;2.55;;;6.00;1.00;;;;;;5110188;27;20235;-76
2021/10/23 05:54:55;;;;;;;4.00;1.83;;;6.00;1.00;;;;;;5118357;27;20223;-76
2021/10/23 05:57:22;;;;;;;8.20;2.30;;;6.00;1.00;;;;;;5123550;27;21054;-76
2021/10/23 05:59:49;;;;;;;7.68;2.10;;;6.00;1.00;;;;;;5116570;27;20227;-76
2021/10/23 06:02:23;;;;;;;7.07;2.50;;;6.00;1.00;;;;;;5121646;27;21053;-76
2021/10/23 06:04:51;;;;;;;7.20;2.60;;;6.00;1.00;;;;;;5114720;27;20658;-76
2021/10/23 06:07:19;;;;;;;8.82;2.13;;;6.00;1.00;;;;;;5121416;27;20698;-76
2021/10/23 06:09:46;;;;;;;5.68;1.92;;;6.00;1.00;;;;;;5130865;27;20219;-75
2021/10/23 06:12:14;;;;;;;7.78;1.75;;;6.00;1.00;;;;;;5131221;27;20243;-76
2021/10/23 06:14:41;;;;;;;7.93;2.50;;;6.00;1.00;;;;;;5116651;27;21529;-76
2021/10/23 06:17:07;;;;;;;7.60;2.65;;;6.00;1.00;;;;;;5115180;27;20224;-76
2021/10/23 06:19:36;;;;;;;5.10;2.35;;;6.00;1.00;;;;;;5118118;27;20220;-76
2021/10/23 06:22:04;;;;;;;6.70;2.70;;;6.10;1.00;;;;;;5117400;27;20215;-76
2021/10/23 06:24:31;;;;;;;5.10;2.63;;;6.10;1.00;;;;;;5115636;27;20226;-76
2021/10/23 06:26:57;;;;;;;10.00;2.47;;;6.10;1.00;;;;;;5115514;27;20357;-76
2021/10/23 06:29:26;;;;;;;5.22;2.60;;;6.20;1.00;;;;;;5117923;27;20223;-76
2021/10/23 06:31:52;;;;;;;10.23;3.90;;;6.20;1.00;;;;;;5118242;27;20234;-76
2021/10/23 06:34:19;;;;;;;6.32;2.70;;;6.20;1.00;;;;;;5113968;27;20219;-76
2021/10/23 06:36:45;;;;;;;9.43;2.83;;;6.20;1.00;;;;;;5120230;27;21069;-76
2021/10/23 06:39:12;;;;;;;5.38;2.78;;;6.30;1.00;;;;;;5096336;27;20232;-76
2021/10/23 06:41:39;;;;;;;6.32;2.72;;;6.30;1.00;;;;;;5120548;27;20230;-76
2021/10/23 06:44:07;;;;;;;11.60;4.05;;;6.40;1.00;;;;;;5116371;27;20226;-76
2021/10/23 06:46:35;;;;;;;6.07;2.70;;;6.40;1.00;;;;;;5117402;27;20303;-76
2021/10/23 06:49:02;;;;;;;9.30;2.92;;;6.40;1.00;;;;;;5116549;27;20302;-76
2021/10/23 06:51:29;;;;;;;7.60;2.05;;;6.50;1.00;;;;;;5117031;27;20255;-76
2021/10/23 06:53:56;;;;;;;6.30;2.50;;;6.50;1.00;;;;;;5117866;27;20741;-75
2021/10/23 06:56:23;;;;;;;9.70;2.13;;;6.50;1.00;;;;;;5119823;27;20301;-77
2021/10/23 06:58:50;;;;;;;9.13;3.10;;;6.50;1.00;;;;;;5114468;27;20223;-77
2021/10/23 07:01:17;;;;;;;8.02;2.40;;;6.50;1.00;;;;;;5118168;27;20215;-77
2021/10/23 07:03:45;;;;;;;6.95;2.80;;;6.60;1.00;;;;;;5115902;27;20306;-77
2021/10/23 07:06:11;;;;;;;9.32;2.63;;;6.70;1.00;;;;;;5117449;27;20975;-77
2021/10/23 07:08:38;;;;;;;10.32;2.67;;;6.70;1.00;;;;;;5096566;27;20236;-77
2021/10/23 07:11:05;;;;;;;8.25;2.30;;;6.80;1.00;;;;;;5113535;27;20227;-77
2021/10/23 07:13:31;;;;;;;6.38;2.30;;;6.80;1.00;;;;;;5124032;27;20223;-77
2021/10/23 07:15:58;;;;;;;7.53;2.47;;;6.80;1.00;;;;;;5129996;27;20223;-77
2021/10/23 07:18:25;;;;;;;10.02;2.85;;;6.90;1.00;;;;;;5107658;27;20234;-77
2021/10/23 07:20:53;;;;;;;11.85;2.53;;;6.90;1.00;;;;;;5118592;27;20229;-77
2021/10/23 07:23:20;;;;;;;5.45;2.50;;;7.00;1.00;;;;;;5118225;27;20230;-76
2021/10/23 07:25:47;;;;;;;8.23;2.63;;;7.10;1.00;;;;;;5114491;27;20310;-75
2021/10/23 07:28:13;;;;;;;12.10;2.72;;;7.10;1.00;;;;;;5116034;27;20303;-76
2021/10/23 07:30:40;;;;;;;9.57;2.95;;;7.30;1.00;;;;;;5118982;27;20223;-76
2021/10/23 07:33:07;;;;;;;5.25;2.30;;;7.30;1.00;;;;;;5119001;27;20231;-76
2021/10/23 07:35:34;;;;;;;7.80;3.72;;;7.40;1.00;;;;;;5118294;27;20291;-76
2021/10/23 07:38:03;;;;;;;9.52;3.20;;;7.50;1.00;;;;;;5115426;27;20230;-76
2021/10/23 07:40:29;;;;;;;7.47;2.35;;;7.60;1.00;;;;;;5114280;27;20270;-76
2021/10/23 07:42:56;;;;;;;8.63;3.00;;;7.70;1.00;;;;;;5115530;27;20234;-76
2021/10/23 07:45:24;;;;;;;11.68;3.30;;;7.80;1.00;;;;;;5115254;27;20719;-76
2021/10/23 07:47:50;;;;;;;6.15;2.90;;;7.90;1.00;;;;;;5114675;27;20269;-76
2021/10/23 07:50:17;;;;;;;4.07;1.90;;;8.10;1.00;;;;;;5114368;27;20349;-77
2021/10/23 07:52:46;;;;;;;8.70;3.05;;;8.30;1.00;;;;;;5114302;27;20230;-76
2021/10/23 07:55:14;;;;;;;6.60;2.17;;;8.60;1.00;;;;;;5110293;27;20223;-76
2021/10/23 07:57:41;;;;;;;6.53;2.30;;;8.80;1.00;;;;;;5124030;27;20222;-76
2021/10/23 08:00:10;;;;;;;7.22;2.50;;;8.80;1.00;;;;;;5115188;27;20731;-76
2021/10/23 08:02:47;;;;;;;11.20;3.78;;;8.80;1.00;;;;;;5117554;27;20214;-75
2021/10/23 08:05:13;;;;;;;6.65;2.60;;;8.70;1.00;;;;;;5131183;27;20242;-76
2021/10/23 08:07:41;;;;;;;6.70;1.83;;;8.80;1.00;;;;;;5133378;27;20238;-76
2021/10/23 08:10:08;;;;;;;6.55;2.70;;;8.80;1.00;;;;;;5128428;27;20224;-76
2021/10/23 08:12:36;;;;;;;30.10;18.05;;;8.90;1.00;;;;;;5134502;27;20291;-76
2021/10/23 08:15:04;;;;;;;8.65;2.45;;;8.90;1.00;;;;;;5123703;27;20219;-76
2021/10/23 08:17:30;;;;;;;8.60;2.22;;;9.00;1.00;;;;;;5124122;27;20219;-76
2021/10/23 08:19:57;;;;;;;6.57;2.63;;;9.30;1.00;;;;;;5118324;27;20269;-76
2021/10/23 08:22:24;;;;;;;5.80;2.20;;;9.50;1.00;;;;;;5113680;27;21230;-77
2021/10/23 08:24:50;;;;;;;6.03;2.20;;;9.60;1.00;;;;;;5114523;27;20461;-77
2021/10/23 08:27:17;;;;;;;10.52;2.63;;;9.70;1.00;;;;;;5116188;27;20221;-77
2021/10/23 08:29:45;;;;;;;9.60;3.30;;;9.60;1.00;;;;;;5115680;27;20225;-77
2021/10/23 08:32:14;;;;;;;14.07;2.83;;;9.50;1.00;;;;;;5100039;27;20481;-76
2021/10/23 08:34:40;;;;;;;13.63;3.83;;;9.60;1.00;;;;;;5119338;27;20221;-77
2021/10/23 08:37:07;;;;;;;6.30;1.90;;;9.50;1.00;;;;;;5112915;27;20451;-77
2021/10/23 08:39:33;;;;;;;4.40;2.10;;;9.50;1.00;;;;;;5096154;27;20446;-77
2021/10/23 08:42:00;;;;;;;7.82;3.10;;;9.60;1.00;;;;;;5114131;27;20218;-76
2021/10/23 08:44:28;;;;;;;6.05;2.30;;;9.90;1.00;;;;;;5097078;27;20235;-76
2021/10/23 08:46:56;;;;;;;7.85;2.88;;;10.00;1.00;;;;;;5119059;27;20221;-78
2021/10/23 08:49:24;;;;;;;4.87;2.27;;;10.00;1.00;;;;;;5111238;27;20231;-76
2021/10/23 08:51:51;;;;;;;5.97;2.90;;;10.10;1.00;;;;;;5113022;27;20425;-76
2021/10/23 08:54:19;;;;;;;6.90;2.37;;;10.20;1.00;;;;;;5114378;27;20217;-77
2021/10/23 08:56:45;;;;;;;6.20;2.90;;;10.30;1.00;;;;;;5116868;27;20439;-76
2021/10/23 08:59:12;;;;;;;10.32;2.13;;;10.40;1.00;;;;;;5115890;27;20460;-76
2021/10/23 09:01:39;;;;;;;7.27;3.00;;;10.40;1.00;;;;;;5113610;27;20279;-77
2021/10/23 09:04:06;;;;;;;7.28;2.20;;;10.40;1.00;;;;;;5116724;27;20532;-77
2021/10/23 09:06:35;;;;;;;8.47;2.77;;;10.40;1.00;;;;;;5119605;27;20219;-77
2021/10/23 09:09:04;;;;;;;6.83;2.10;;;10.50;1.00;;;;;;5124623;27;20449;-77
2021/10/23 09:11:34;;;;;;;5.37;2.20;;;10.60;1.00;;;;;;5118670;27;20542;-77
2021/10/23 09:14:28;;;;;;;5.20;1.90;;;10.70;1.00;;;;;;5113640;27;20440;-77
2021/10/23 09:17:06;;;;;;;5.87;2.00;;;10.60;1.00;;;;;;5112495;27;20440;-77
2021/10/23 09:19:36;;;;;;;5.53;2.43;;;10.60;1.00;;;;;;5112205;27;20462;-77
2021/10/23 09:22:05;;;;;;;4.63;2.33;;;10.70;1.00;;;;;;5114921;27;20456;-77
2021/10/23 09:24:31;;;;;;;8.10;3.40;;;10.70;1.00;;;;;;5112115;27;20433;-76
2021/10/23 09:26:58;;;;;;;4.90;2.53;;;10.80;1.00;;;;;;5114443;27;21070;-77
2021/10/23 09:29:28;;;;;;;11.40;2.80;;;10.70;1.00;;;;;;5114129;27;20547;-77
2021/10/23 09:31:56;;;;;;;6.77;2.57;;;10.80;1.00;;;;;;5111108;27;20947;-76
2021/10/23 09:34:24;;;;;;;6.33;2.07;;;11.10;1.00;;;;;;5112525;27;20450;-77
2021/10/23 09:36:54;;;;;;;8.33;2.60;;;11.20;1.00;;;;;;5119766;27;20444;-77
2021/10/23 09:39:28;;;;;;;5.00;2.00;;;11.30;1.00;;;;;;5117542;27;20614;-77
2021/10/23 09:42:11;;;;;;;7.43;2.90;;;11.20;1.00;;;;;;5113285;27;20487;-76
2021/10/23 09:44:39;;;;;;;6.33;2.70;;;11.00;1.00;;;;;;5116253;27;20533;-77
2021/10/23 09:47:07;;;;;;;7.63;2.40;;;11.00;1.00;;;;;;5116349;27;20517;-77
2021/10/23 09:49:34;;;;;;;5.20;2.10;;;11.10;1.00;;;;;;5115689;27;20450;-78
2021/10/23 09:52:07;;;;;;;7.40;2.10;;;11.30;1.00;;;;;;5110485;27;20472;-77
2021/10/23 09:54:35;;;;;;;8.23;3.00;;;11.40;1.00;;;;;;5117843;27;20444;-78
2021/10/23 09:57:09;;;;;;;5.47;2.90;;;11.40;1.00;;;;;;5118083;27;20516;-77
2021/10/23 09:59:38;;;;;;;8.23;2.30;;;11.40;1.00;;;;;;5114740;27;20469;-77
2021/10/23 10:02:06;;;;;;;6.53;2.70;;;11.30;1.00;;;;;;5119364;27;21351;-76
2021/10/23 10:04:33;;;;;;;6.07;1.90;;;11.30;1.00;;;;;;5118653;27;20447;-76
2021/10/23 10:07:01;;;;;;;7.73;2.80;;;11.50;1.00;;;;;;5124873;27;20444;-76
2021/10/23 10:09:29;;;;;;;4.27;2.27;;;11.70;1.00;;;;;;5129653;27;20452;-76
2021/10/23 10:11:57;;;;;;;6.93;2.17;;;11.70;1.00;;;;;;5118179;27;20450;-76
2021/10/23 10:14:27;;;;;;;7.50;2.10;;;11.60;1.00;;;;;;5118064;27;20433;-78
2021/10/23 10:16:55;;;;;;;9.57;2.20;;;11.60;1.00;;;;;;5116937;27;20429;-77
2021/10/23 10:19:22;;;;;;;6.70;2.33;;;11.70;1.00;;;;;;5118197;27;20468;-77
2021/10/23 10:21:50;;;;;;;10.00;3.03;;;11.70;1.00;;;;;;5115019;27;21486;-77
2021/10/23 10:24:19;;;;;;;13.70;3.43;;;11.90;1.00;;;;;;5119411;27;20437;-78
2021/10/23 10:27:02;;;;;;;6.40;1.70;;;12.10;1.00;;;;;;5114769;27;20543;-76
2021/10/23 10:29:49;;;;;;;6.03;1.90;;;12.40;1.00;;;;;;5118701;27;21492;-77
2021/10/23 10:32:20;;;;;;;9.60;2.43;;;12.60;1.00;;;;;;5113714;27;23671;-77
2021/10/23 10:35:06;;;;;;;6.00;2.10;;;12.60;1.00;;;;;;5116050;27;20994;-77
2021/10/23 10:37:53;;;;;;;6.47;2.80;;;12.40;1.00;;;;;;5117251;27;20444;-77
2021/10/23 10:40:43;;;;;;;6.33;2.30;;;12.40;1.00;;;;;;5114697;27;20547;-78
2021/10/23 10:43:13;;;;;;;7.93;2.63;;;12.40;1.00;;;;;;5115824;27;20513;-77
2021/10/23 10:45:53;;;;;;;8.10;2.53;;;12.50;1.00;;;;;;5116199;27;20521;-77
2021/10/23 10:48:21;;;;;;;6.80;2.60;;;12.70;1.00;;;;;;5117258;27;20441;-77
2021/10/23 10:50:50;;;;;;;7.87;3.30;;;12.70;1.00;;;;;;5118753;27;20449;-77
2021/10/23 10:53:18;;;;;;;7.70;2.87;;;12.70;1.00;;;;;;5115471;27;20480;-77
2021/10/23 10:55:46;;;;;;;6.20;2.63;;;13.40;1.00;;;;;;5116212;27;20437;-77
2021/10/23 10:58:14;;;;;;;4.63;2.07;;;14.10;1.00;;;;;;5113750;27;20498;-77
2021/10/23 11:01:16;;;;;;;6.90;2.37;;;14.30;1.00;;;;;;5115997;27;20442;-76
2021/10/23 11:03:49;;;;;;;7.07;2.70;;;14.30;1.00;;;;;;5114535;27;20459;-77
2021/10/23 11:07:02;;;;;;;6.50;2.17;;;14.20;1.00;;;;;;5130040;27;20415;-76
2021/10/23 11:09:45;;;;;;;6.13;2.20;;;14.50;1.00;;;;;;5115698;27;20687;-77
2021/10/23 11:12:27;;;;;;;7.93;2.50;;;14.40;1.00;;;;;;5113221;27;20462;-77
2021/10/23 11:14:55;;;;;;;7.63;2.63;;;14.30;1.00;;;;;;5117489;27;20555;-78
2021/10/23 11:17:22;;;;;;;9.30;2.60;;;14.30;1.00;;;;;;5117490;27;20477;-77
2021/10/23 11:19:51;;;;;;;6.83;2.43;;;14.60;1.00;;;;;;5112536;27;20442;-77
2021/10/23 11:22:19;;;;;;;5.53;2.50;;;14.90;1.00;;;;;;5133819;27;20404;-77
2021/10/23 11:24:49;;;;;;;5.37;2.27;;;14.80;1.00;;;;;;5127059;27;20457;-77
2021/10/23 11:27:27;;;;;;;6.33;2.50;;;14.90;1.00;;;;;;5118961;27;20441;-77
2021/10/23 11:30:24;;;;;;;5.13;2.10;;;15.50;1.00;;;;;;5122724;27;20464;-78
2021/10/23 11:32:53;;;;;;;4.80;2.00;;;15.40;1.00;;;;;;5112771;27;20487;-76
2021/10/23 11:35:29;;;;;;;6.43;2.30;;;15.10;1.00;;;;;;5096300;27;20937;-77
2021/10/23 11:37:56;;;;;;;6.60;2.77;;;15.30;1.00;;;;;;5113873;27;20487;-77
2021/10/23 11:40:23;;;;;;;8.23;2.20;;;15.20;1.00;;;;;;5118527;27;20518;-77
2021/10/23 11:42:51;;;;;;;6.53;2.80;;;15.50;1.00;;;;;;5114703;27;20488;-76
2021/10/23 11:45:24;;;;;;;6.67;2.37;;;15.30;1.00;;;;;;5113672;27;20452;-77
2021/10/23 11:47:53;;;;;;;12.30;3.30;;;15.00;1.00;;;;;;5113268;27;20479;-77
2021/10/23 11:50:23;;;;;;;8.97;2.40;;;15.00;1.00;;;;;;5114955;27;20443;-77
2021/10/23 11:52:52;;;;;;;7.87;3.77;;;15.80;1.00;;;;;;5119906;27;20461;-77
2021/10/23 11:55:30;;;;;;;7.70;2.20;;;16.30;1.00;;;;;;5115961;27;20467;-77
2021/10/23 11:57:58;;;;;;;3.67;2.43;;;16.40;1.00;;;;;;5114676;27;21383;-76
2021/10/23 12:00:27;;;;;;;5.67;2.50;;;17.20;1.00;;;;;;5096603;27;20458;-77
2021/10/23 12:03:02;;;;;;;6.23;2.90;;;17.30;1.00;;;;;;5117212;27;20471;-77
2021/10/23 12:05:36;;;;;;;6.97;2.47;;;18.50;1.00;;;;;;5114698;27;20479;-76
2021/10/23 12:08:27;;;;;;;4.50;2.30;;;19.70;1.00;;;;;;5113424;27;20461;-77
2021/10/23 12:10:59;;;;;;;5.63;2.33;;;22.10;1.00;;;;;;5111574;27;20458;-78
2021/10/23 12:13:26;;;;;;;5.67;2.23;;;23.50;1.00;;;;;;5112850;27;20514;-77
2021/10/23 12:16:11;;;;;;;6.67;2.37;;;24.00;1.00;;;;;;5118440;27;20486;-77
2021/10/23 12:18:41;;;;;;;6.37;2.60;;;23.90;1.00;;;;;;5122375;27;21714;-77
2021/10/23 12:21:17;;;;;;;4.70;2.60;;;22.30;1.00;;;;;;5112916;27;20437;-79
2021/10/23 12:24:15;;;;;;;7.53;2.90;;;20.50;1.00;;;;;;5125562;27;20457;-78
2021/10/23 12:26:42;;;;;;;4.33;1.70;;;20.30;1.00;;;;;;5119485;27;20458;-78
2021/10/23 12:29:11;;;;;;;8.37;2.43;;;20.00;1.00;;;;;;5112799;27;20759;-77
2021/10/23 12:31:58;;;;;;;3.47;2.00;;;19.70;1.00;;;;;;5116914;27;20495;-77
2021/10/23 12:34:49;;;;;;;4.43;2.20;;;19.00;1.00;;;;;;5114349;27;20487;-77
2021/10/23 12:37:30;;;;;;;4.33;2.73;;;18.70;1.00;;;;;;5095859;27;20546;-77
2021/10/23 12:40:03;;;;;;;6.90;2.37;;;18.50;1.00;;;;;;5113394;27;20925;-76
2021/10/23 12:42:29;;;;;;;4.30;1.77;;;18.60;1.00;;;;;;5094688;27;21351;-76
2021/10/23 12:44:56;;;;;;;4.00;1.80;;;18.80;1.00;;;;;;5112353;27;20465;-77
2021/10/23 12:47:23;;;;;;;3.93;2.27;;;18.90;1.00;;;;;;5117129;27;20452;-77
2021/10/23 12:49:49;;;;;;;5.07;2.77;;;18.30;1.00;;;;;;5111584;27;20459;-77
2021/10/23 12:52:17;;;;;;;5.67;2.17;;;17.80;1.00;;;;;;5096488;27;20852;-77
2021/10/23 12:54:44;;;;;;;6.23;2.67;;;17.20;1.00;;;;;;5116111;27;20961;-77
2021/10/23 12:57:10;;;;;;;4.80;1.93;;;16.60;1.00;;;;;;5114969;27;20451;-78
2021/10/23 12:59:37;;;;;;;5.57;2.77;;;16.50;1.00;;;;;;5112030;27;20449;-77
2021/10/23 13:02:04;;;;;;;6.47;2.27;;;16.70;1.00;;;;;;5112930;27;21009;-77
2021/10/23 13:04:30;;;;;;;3.93;1.97;;;17.50;1.00;;;;;;5113556;27;20530;-77
2021/10/23 13:06:57;;;;;;;7.20;2.10;;;18.00;1.00;;;;;;5112371;27;21017;-78
2021/10/23 13:09:25;;;;;;;5.60;2.10;;;17.50;1.00;;;;;;5109631;27;21121;-79
2021/10/23 13:11:52;;;;;;;4.27;2.73;;;16.80;1.00;;;;;;5111482;27;20534;-77